ACA2250 CYQM-CYHZ
Flight info
| Callsign | ACA2250 |
|---|---|
| Flight time | 0h 18m |
| Altitude | 15000 |
| Route | ODKAS |
| Aircraft | A320/M-SDE3FGHIRWY/LB1 |
Departure
| Time | 2026-04-21 17:32 |
|---|---|
| Airport | Greater Moncton Roméo LeBlanc International Airport (CYQM) |
Arrival
| Time | 2026-04-21 17:51 |
|---|---|
| Airport | Halifax / Stanfield International Airport (CYHZ) |
| Time | Latitude | Longitude | Altitude | Speed | Heading |
|---|---|---|---|---|---|
| 2026-04-21 17:26 | 46.11556 | -64.68765 | 233 ft | 0 kts | 312° |
| 2026-04-21 17:29 | 46.11545 | -64.68748 | 237 ft | 2 kts | 312° |
| 2026-04-21 17:29 | 46.11532 | -64.68728 | 234 ft | 6 kts | 312° |
| 2026-04-21 17:29 | 46.11504 | -64.68705 | 237 ft | 0 kts | 47° |
| 2026-04-21 17:29 | 46.11507 | -64.68699 | 234 ft | 4 kts | 47° |
| 2026-04-21 17:30 | 46.11551 | -64.68624 | 233 ft | 12 kts | 64° |
| 2026-04-21 17:30 | 46.11557 | -64.68492 | 234 ft | 14 kts | 38° |
| 2026-04-21 17:30 | 46.11629 | -64.68395 | 234 ft | 17 kts | 43° |
| 2026-04-21 17:30 | 46.11735 | -64.68252 | 234 ft | 29 kts | 39° |
| 2026-04-21 17:31 | 46.11897 | -64.68040 | 231 ft | 23 kts | 42° |
| 2026-04-21 17:31 | 46.11863 | -64.67862 | 231 ft | 21 kts | 134° |
| 2026-04-21 17:31 | 46.11807 | -64.67844 | 231 ft | 0 kts | 225° |
| 2026-04-21 17:31 | 46.11777 | -64.67885 | 231 ft | 33 kts | 221° |
| 2026-04-21 17:32 | 46.11556 | -64.68173 | 237 ft | 94 kts | 224° |
| 2026-04-21 17:32 | 46.10608 | -64.69423 | 501 ft | 163 kts | 224° |
| 2026-04-21 17:32 | 46.09811 | -64.70538 | 1517 ft | 157 kts | 227° |
| 2026-04-21 17:32 | 46.09000 | -64.71683 | 2155 ft | 172 kts | 219° |
| 2026-04-21 17:33 | 46.07817 | -64.72221 | 2492 ft | 191 kts | 174° |
| 2026-04-21 17:33 | 46.06580 | -64.71414 | 2923 ft | 206 kts | 140° |
| 2026-04-21 17:33 | 46.05404 | -64.70143 | 3315 ft | 225 kts | 148° |
| 2026-04-21 17:33 | 46.03960 | -64.68972 | 3772 ft | 248 kts | 152° |
| 2026-04-21 17:34 | 46.02392 | -64.67802 | 4565 ft | 256 kts | 153° |
| 2026-04-21 17:34 | 46.00816 | -64.66628 | 5486 ft | 260 kts | 153° |
| 2026-04-21 17:34 | 45.99194 | -64.65397 | 6371 ft | 266 kts | 153° |
| 2026-04-21 17:34 | 45.97545 | -64.64122 | 7205 ft | 272 kts | 153° |
| 2026-04-21 17:35 | 45.95873 | -64.62809 | 8056 ft | 276 kts | 152° |
| 2026-04-21 17:35 | 45.94179 | -64.61463 | 8921 ft | 280 kts | 152° |
| 2026-04-21 17:35 | 45.92466 | -64.60093 | 9805 ft | 283 kts | 152° |
| 2026-04-21 17:35 | 45.90719 | -64.58693 | 10456 ft | 296 kts | 152° |
| 2026-04-21 17:36 | 45.89496 | -64.57715 | 10635 ft | 312 kts | 152° |
| 2026-04-21 17:36 | 45.87529 | -64.56143 | 10863 ft | 335 kts | 152° |
| 2026-04-21 17:36 | 45.85417 | -64.54453 | 11113 ft | 355 kts | 152° |
| 2026-04-21 17:36 | 45.82516 | -64.52126 | 11931 ft | 364 kts | 152° |
| 2026-04-21 17:37 | 45.81016 | -64.50923 | 12401 ft | 368 kts | 152° |
| 2026-04-21 17:37 | 45.78766 | -64.49119 | 12882 ft | 372 kts | 152° |
| 2026-04-21 17:37 | 45.76508 | -64.47315 | 13007 ft | 372 kts | 153° |
| 2026-04-21 17:37 | 45.74272 | -64.45531 | 13018 ft | 372 kts | 152° |
| 2026-04-21 17:38 | 45.72009 | -64.43723 | 13018 ft | 377 kts | 152° |
| 2026-04-21 17:38 | 45.69646 | -64.41841 | 13017 ft | 399 kts | 152° |
| 2026-04-21 17:38 | 45.67190 | -64.39888 | 13010 ft | 407 kts | 152° |
| 2026-04-21 17:38 | 45.64713 | -64.37919 | 13010 ft | 408 kts | 152° |
| 2026-04-21 17:39 | 45.62229 | -64.35946 | 13010 ft | 408 kts | 152° |
| 2026-04-21 17:39 | 45.59743 | -64.33973 | 13011 ft | 408 kts | 152° |
| 2026-04-21 17:39 | 45.57264 | -64.32009 | 13004 ft | 408 kts | 152° |
| 2026-04-21 17:39 | 45.54774 | -64.30039 | 13004 ft | 408 kts | 152° |
| 2026-04-21 17:40 | 45.52295 | -64.28080 | 13009 ft | 408 kts | 153° |
| 2026-04-21 17:40 | 45.49810 | -64.26116 | 13001 ft | 408 kts | 152° |
| 2026-04-21 17:40 | 45.47326 | -64.24157 | 13004 ft | 408 kts | 153° |
| 2026-04-21 17:40 | 45.44840 | -64.22202 | 13005 ft | 408 kts | 153° |
| 2026-04-21 17:41 | 45.42386 | -64.20277 | 13002 ft | 408 kts | 153° |
| 2026-04-21 17:41 | 45.39904 | -64.18328 | 13003 ft | 408 kts | 153° |
| 2026-04-21 17:41 | 45.37412 | -64.16367 | 12999 ft | 408 kts | 152° |
| 2026-04-21 17:41 | 45.34927 | -64.14413 | 13000 ft | 407 kts | 153° |
| 2026-04-21 17:42 | 45.32444 | -64.12467 | 12994 ft | 407 kts | 153° |
| 2026-04-21 17:42 | 45.29993 | -64.10549 | 12724 ft | 406 kts | 153° |
| 2026-04-21 17:42 | 45.27527 | -64.08617 | 12452 ft | 404 kts | 153° |
| 2026-04-21 17:42 | 45.25071 | -64.06692 | 12093 ft | 402 kts | 153° |
| 2026-04-21 17:43 | 45.22627 | -64.04774 | 11487 ft | 398 kts | 153° |
| 2026-04-21 17:43 | 45.20205 | -64.02878 | 11206 ft | 396 kts | 153° |
| 2026-04-21 17:43 | 45.17900 | -64.01082 | 11125 ft | 396 kts | 153° |
| 2026-04-21 17:43 | 45.15513 | -63.99229 | 10971 ft | 396 kts | 153° |
| 2026-04-21 17:44 | 45.13098 | -63.97355 | 10798 ft | 395 kts | 153° |
| 2026-04-21 17:44 | 45.10683 | -63.95484 | 10614 ft | 394 kts | 153° |
| 2026-04-21 17:44 | 45.08277 | -63.93618 | 10451 ft | 393 kts | 153° |
| 2026-04-21 17:44 | 45.05882 | -63.91758 | 10275 ft | 392 kts | 153° |
| 2026-04-21 17:45 | 45.03488 | -63.89900 | 10080 ft | 391 kts | 153° |
| 2026-04-21 17:45 | 45.01100 | -63.88030 | 9826 ft | 391 kts | 151° |
| 2026-04-21 17:45 | 44.99053 | -63.85720 | 9309 ft | 369 kts | 137° |
| 2026-04-21 17:45 | 44.97271 | -63.83263 | 8563 ft | 351 kts | 137° |
| 2026-04-21 17:46 | 44.95539 | -63.80900 | 7588 ft | 342 kts | 137° |
| 2026-04-21 17:46 | 44.93840 | -63.78597 | 6673 ft | 334 kts | 137° |
| 2026-04-21 17:46 | 44.92190 | -63.76363 | 5707 ft | 327 kts | 137° |
| 2026-04-21 17:46 | 44.90570 | -63.74164 | 4876 ft | 317 kts | 137° |
| 2026-04-21 17:47 | 44.89017 | -63.72051 | 4417 ft | 298 kts | 137° |
| 2026-04-21 17:47 | 44.87587 | -63.70106 | 4041 ft | 280 kts | 136° |
| 2026-04-21 17:47 | 44.86219 | -63.68245 | 3719 ft | 263 kts | 137° |
| 2026-04-21 17:47 | 44.84965 | -63.66539 | 3462 ft | 241 kts | 137° |
| 2026-04-21 17:48 | 44.83798 | -63.64958 | 3043 ft | 223 kts | 137° |
| 2026-04-21 17:48 | 44.82737 | -63.63505 | 2668 ft | 202 kts | 131° |
| 2026-04-21 17:48 | 44.82088 | -63.61897 | 2510 ft | 187 kts | 103° |
| 2026-04-21 17:48 | 44.82106 | -63.60150 | 2386 ft | 168 kts | 76° |
| 2026-04-21 17:49 | 44.82358 | -63.58612 | 2221 ft | 156 kts | 74° |
| 2026-04-21 17:49 | 44.82721 | -63.57180 | 1768 ft | 159 kts | 59° |
| 2026-04-21 17:49 | 44.83381 | -63.55950 | 1376 ft | 154 kts | 44° |
| 2026-04-21 17:49 | 44.84192 | -63.55030 | 1073 ft | 146 kts | 30° |
| 2026-04-21 17:50 | 44.85045 | -63.54258 | 861 ft | 145 kts | 33° |
| 2026-04-21 17:50 | 44.85858 | -63.53445 | 690 ft | 146 kts | 37° |
| 2026-04-21 17:50 | 44.86693 | -63.52611 | 475 ft | 147 kts | 39° |
| 2026-04-21 17:50 | 44.87436 | -63.51865 | 449 ft | 108 kts | 34° |
| 2026-04-21 17:51 | 44.87913 | -63.51397 | 450 ft | 62 kts | 35° |
| 2026-04-21 17:51 | 44.88207 | -63.51105 | 449 ft | 39 kts | 35° |
| 2026-04-21 17:51 | 44.88408 | -63.50903 | 451 ft | 33 kts | 35° |
| 2026-04-21 17:51 | 44.88588 | -63.50727 | 452 ft | 26 kts | 32° |
| 2026-04-21 17:52 | 44.88681 | -63.50825 | 452 ft | 19 kts | 305° |
| 2026-04-21 17:52 | 44.88718 | -63.51003 | 452 ft | 21 kts | 261° |
| 2026-04-21 17:52 | 44.88693 | -63.51210 | 450 ft | 19 kts | 259° |
| 2026-04-21 17:52 | 44.88716 | -63.51387 | 451 ft | 13 kts | 286° |
| 2026-04-21 17:53 | 44.88719 | -63.51399 | 452 ft | 0 kts | 285° |